createdAt,value
2023-02-25T00:00:26.216Z,24.6
2023-02-25T00:06:34.032Z,24.5
2023-02-25T00:12:11.302Z,24.3
2023-02-25T00:18:21.045Z,24.8
2023-02-25T00:24:23.525Z,25.2
2023-02-25T00:30:15.686Z,25.2
2023-02-25T00:36:08.595Z,24.8
2023-02-25T00:42:08.059Z,24.4
2023-02-25T00:48:01.534Z,24.3
2023-02-25T00:53:45.498Z,24.1
2023-02-25T00:59:38.565Z,24
2023-02-25T01:05:38.081Z,23.9
2023-02-25T01:11:33.890Z,24.4
2023-02-25T01:17:13.070Z,24.9
2023-02-25T01:22:34.574Z,24.7
2023-02-25T01:28:28.003Z,24.3
2023-02-25T01:34:23.292Z,24.1
2023-02-25T01:40:16.295Z,23.9
2023-02-25T01:46:08.859Z,23.8
2023-02-25T01:52:02.557Z,23.6
2023-02-25T01:57:56.474Z,23.8
2023-02-25T02:03:48.876Z,24.2
2023-02-25T02:09:43.113Z,24.7
2023-02-25T02:15:36.553Z,24.4
2023-02-25T02:21:29.213Z,23.9
2023-02-25T02:27:22.246Z,23.8
2023-02-25T02:33:00.135Z,23.5
2023-02-25T02:38:52.803Z,23.6
2023-02-25T02:44:30.124Z,24
2023-02-25T02:50:23.489Z,24.6
2023-02-25T02:56:00.859Z,24.3
2023-02-25T03:01:53.685Z,23.9
2023-02-25T03:07:31.912Z,23.7
2023-02-25T03:13:09.111Z,23.4
2023-02-25T03:18:31.799Z,23.4
2023-02-25T03:24:10.840Z,23.8
2023-02-25T03:29:47.339Z,24.4
2023-02-25T03:35:25.626Z,24.3
2023-02-25T03:41:02.440Z,23.9
2023-02-25T03:46:40.819Z,23.6
2023-02-25T03:52:03.319Z,23.4
2023-02-25T03:57:41.244Z,23.3
2023-02-25T04:03:34.336Z,23.5
2023-02-25T04:09:12.632Z,24
2023-02-25T04:14:49.274Z,24.4
2023-02-25T04:20:27.029Z,24.1
2023-02-25T04:26:20.250Z,23.7
2023-02-25T04:31:43.430Z,23.5
2023-02-25T04:37:37.801Z,23.3
2023-02-25T04:43:31.505Z,23.3
2023-02-25T04:49:25.888Z,23.6
2023-02-25T04:55:19.734Z,24.3
2023-02-25T05:01:11.934Z,24.3
2023-02-25T05:07:05.217Z,23.8
2023-02-25T05:13:00.504Z,23.5
2023-02-25T05:18:23.773Z,23.3
2023-02-25T05:24:17.185Z,23.1
2023-02-25T05:30:10.089Z,23.4
2023-02-25T05:35:48.016Z,23.9
2023-02-25T05:41:26.216Z,24.3
2023-02-25T05:47:19.079Z,23.9
2023-02-25T05:52:56.087Z,23.5
2023-02-25T05:58:32.847Z,23.3
2023-02-25T06:04:10.686Z,23.1
2023-02-25T06:09:48.596Z,23.1
2023-02-25T06:15:25.048Z,23.5
2023-02-25T06:21:19.111Z,24.2
2023-02-25T06:26:57.258Z,23.9
2023-02-25T06:32:51.646Z,23.5
2023-02-25T06:38:13.956Z,23.3
2023-02-25T06:44:07.509Z,23.1
2023-02-25T06:49:46.024Z,22.9
2023-02-25T06:55:23.317Z,23.3
2023-02-25T07:01:01.774Z,23.9
2023-02-25T07:06:56.366Z,24.1
2023-02-25T07:12:18.626Z,23.6
2023-02-25T07:17:41.512Z,23.3
2023-02-25T07:23:18.596Z,23.2
2023-02-25T07:29:10.656Z,22.9
2023-02-25T07:35:05.329Z,22.8
2023-02-25T07:40:58.670Z,22.8
2023-02-25T07:46:51.148Z,22.8
2023-02-25T07:52:44.011Z,23.1
2023-02-25T07:58:40.336Z,23.3
2023-02-25T08:04:34.289Z,23
2023-02-25T08:10:29.178Z,22.9
2023-02-25T08:16:22.139Z,22.8
2023-02-25T08:22:15.813Z,22.8
2023-02-25T08:28:09.385Z,22.8
2023-02-25T08:34:04.489Z,22.9
2023-02-25T08:39:42.728Z,23.1
2023-02-25T08:45:37.877Z,22.9
2023-02-25T08:51:30.828Z,22.8
2023-02-25T08:57:23.768Z,22.7
2023-02-25T09:03:16.127Z,22.6
2023-02-25T09:09:12.178Z,22.6
2023-02-25T09:15:18.636Z,22.8
2023-02-25T09:20:56.316Z,23
2023-02-25T09:26:48.734Z,22.8
2023-02-25T09:32:42.367Z,22.6
2023-02-25T09:38:35.620Z,22.6
2023-02-25T09:44:28.050Z,22.6
2023-02-25T09:50:08.790Z,22.4
2023-02-25T09:55:46.720Z,22.6
2023-02-25T10:01:24.011Z,22.9
2023-02-25T10:07:02.623Z,22.7
2023-02-25T10:12:39.801Z,22.6
2023-02-25T10:18:06.885Z,22.4
2023-02-25T10:23:59.183Z,22.4
2023-02-25T10:29:36.023Z,22.4
2023-02-25T10:35:29.569Z,22.4
2023-02-25T10:41:22.328Z,22.8
2023-02-25T10:47:15.662Z,22.6
2023-02-25T10:53:14.769Z,22.5
2023-02-25T10:59:07.701Z,22.5
2023-02-25T11:05:01.790Z,22.4
2023-02-25T11:10:54.161Z,22.4
2023-02-25T11:17:07.274Z,22.5
2023-02-25T11:23:01.410Z,22.6
2023-02-25T11:28:53.144Z,22.5
2023-02-25T11:34:50.380Z,22.4
2023-02-25T11:40:46.745Z,22.4
2023-02-25T11:46:40.486Z,22.4
2023-02-25T11:52:32.881Z,22.3
2023-02-25T11:57:54.903Z,22.7
2023-02-25T12:03:47.816Z,22.6
2023-02-25T12:09:55.128Z,22.4
2023-02-25T12:15:47.198Z,22.4
2023-02-25T12:21:25.010Z,22.4
2023-02-25T12:27:17.973Z,22.4
2023-02-25T12:33:10.866Z,22.3
2023-02-25T12:39:06.532Z,22.6
2023-02-25T12:45:00.252Z,22.4
2023-02-25T12:50:53.946Z,22.4
2023-02-25T12:56:47.429Z,22.4
2023-02-25T13:02:26.309Z,22.4
2023-02-25T13:08:19.630Z,22.3
2023-02-25T13:14:38.485Z,22.6
2023-02-25T13:20:31.549Z,22.4
2023-02-25T13:26:24.569Z,22.4
2023-02-25T13:32:18.351Z,22.4
2023-02-25T13:38:12.154Z,22.3
2023-02-25T13:43:48.747Z,22.3
2023-02-25T13:49:41.731Z,22.3
2023-02-25T13:55:37.458Z,22.3
2023-02-25T14:01:29.765Z,22.3
2023-02-25T14:07:22.164Z,22.3
2023-02-25T14:13:19.881Z,22.3
2023-02-25T14:19:13.114Z,22.2
2023-02-25T14:25:06.699Z,22.1
2023-02-25T14:30:29.540Z,22.1
2023-02-25T14:36:22.952Z,22
2023-02-25T14:42:16.193Z,21.9
2023-02-25T14:48:08.713Z,21.9
2023-02-25T14:54:01.622Z,21.9
2023-02-25T14:59:54.096Z,21.8
2023-02-25T15:05:49.312Z,21.6
2023-02-25T15:11:42.832Z,21.6
2023-02-25T15:17:35.625Z,21.9
2023-02-25T15:23:14.257Z,22.8
2023-02-25T15:29:06.505Z,23.6
2023-02-25T15:35:01.787Z,24.1
2023-02-25T15:40:54.058Z,24.4
2023-02-25T15:46:49.343Z,24.7
2023-02-25T15:52:11.271Z,25.1
2023-02-25T15:58:04.706Z,25.4
2023-02-25T16:03:47.722Z,25.7
2023-02-25T16:09:40.174Z,25.9
2023-02-25T16:15:32.556Z,26.1
2023-02-25T16:21:27.103Z,26.4
2023-02-25T16:27:19.496Z,26.7
2023-02-25T16:33:13.528Z,26.9
2023-02-25T16:38:55.755Z,27.1
2023-02-25T16:44:56.509Z,27.3
2023-02-25T16:50:50.193Z,27.3
2023-02-25T16:56:44.009Z,27.5
2023-02-25T17:02:21.116Z,27.6
2023-02-25T17:08:15.101Z,27.7
2023-02-25T17:14:07.690Z,27.8
2023-02-25T17:25:40.271Z,27.9
2023-02-25T17:31:34.300Z,28.1
2023-02-25T17:37:28.885Z,28.3
2023-02-25T17:43:24.483Z,28.4
2023-02-25T17:49:18.475Z,28.6
2023-02-25T17:55:12.794Z,28.7
2023-02-25T18:01:08.336Z,28.9
2023-02-25T18:07:03.242Z,29
2023-02-25T18:12:57.259Z,29.1
2023-02-25T18:19:01.834Z,29.3
2023-02-25T18:24:55.723Z,29.7
2023-02-25T18:30:49.689Z,30
2023-02-25T18:36:30.840Z,30.2
2023-02-25T18:42:25.395Z,30.4
2023-02-25T18:48:20.145Z,30.6
2023-02-25T18:54:14.596Z,30.6
2023-02-25T19:00:08.133Z,30.8
2023-02-25T19:05:46.035Z,30.9
2023-02-25T19:11:39.736Z,30.9
2023-02-25T19:17:34.733Z,30.9
2023-02-25T19:23:27.548Z,31
2023-02-25T19:29:20.709Z,31.2
2023-02-25T19:35:00.560Z,31.4
2023-02-25T19:40:53.519Z,31.5
2023-02-25T19:46:47.972Z,31.6
2023-02-25T19:52:41.308Z,31.4
2023-02-25T19:58:35.958Z,31.4
2023-02-25T20:04:29.595Z,31.3
2023-02-25T20:10:24.572Z,31.3
2023-02-25T20:16:17.801Z,31.1
2023-02-25T20:22:13.068Z,31.1
2023-02-25T20:28:08.834Z,30.9
2023-02-25T20:34:04.194Z,30.8
2023-02-25T20:39:44.085Z,30.8
2023-02-25T20:45:39.525Z,30.6
2023-02-25T20:51:32.957Z,30.4
2023-02-25T20:57:25.629Z,30.3
2023-02-25T21:03:19.076Z,30.1
2023-02-25T21:09:13.850Z,29.9
2023-02-25T21:15:08.546Z,29.8
2023-02-25T21:21:01.845Z,29.4
2023-02-25T21:26:56.048Z,28.9
2023-02-25T21:32:50.213Z,28.3
2023-02-25T21:38:44.944Z,27.8
2023-02-25T21:44:37.572Z,27.4
2023-02-25T21:50:30.757Z,27
2023-02-25T21:56:23.413Z,26.7
2023-02-25T22:02:15.831Z,26.4
2023-02-25T22:08:10.479Z,26.6
2023-02-25T22:14:03.169Z,27.4
2023-02-25T22:19:56.110Z,26.9
2023-02-25T22:25:50.476Z,26.5
2023-02-25T22:31:44.901Z,26.2
2023-02-25T22:37:22.031Z,25.9
2023-02-25T22:43:14.968Z,25.8
2023-02-25T22:48:52.725Z,25.5
2023-02-25T22:54:43.859Z,25.3
2023-02-25T23:00:36.397Z,26.2
2023-02-25T23:06:42.063Z,26.2
2023-02-25T23:12:37.639Z,25.8
2023-02-25T23:18:30.656Z,25.5
2023-02-25T23:24:23.092Z,25.3
2023-02-25T23:30:15.181Z,25.1
2023-02-25T23:36:08.778Z,25
2023-02-25T23:42:03.109Z,25.3
2023-02-25T23:47:59.744Z,25.8
2023-02-25T23:53:53.213Z,25.4
2023-02-25T23:59:46.601Z,25.2
